createdAt,value
2023-03-28T00:00:40.278Z,7.63
2023-03-28T00:03:07.283Z,10.17
2023-03-28T00:05:34.225Z,8.33
2023-03-28T00:08:01.149Z,8.27
2023-03-28T00:10:28.226Z,8.70
2023-03-28T00:12:55.021Z,8.60
2023-03-28T00:15:23.236Z,8.70
2023-03-28T00:17:52.656Z,9.90
2023-03-28T00:20:20.069Z,9.43
2023-03-28T00:22:46.922Z,9.03
2023-03-28T00:25:14.357Z,9.30
2023-03-28T00:27:41.922Z,9.93
2023-03-28T00:30:09.699Z,9.80
2023-03-28T00:32:37.343Z,8.60
2023-03-28T00:35:04.548Z,9.37
2023-03-28T00:37:32.035Z,14.43
2023-03-28T00:40:02.040Z,14.27
2023-03-28T00:42:28.909Z,10.50
2023-03-28T00:44:56.939Z,9.97
2023-03-28T00:47:30.945Z,10.23
2023-03-28T00:50:03.254Z,9.67
2023-03-28T00:52:32.235Z,10.57
2023-03-28T00:54:59.851Z,10.13
2023-03-28T00:57:28.275Z,8.90
2023-03-28T00:59:55.223Z,8.50
2023-03-28T01:02:22.906Z,8.83
2023-03-28T01:04:57.891Z,9.30
2023-03-28T01:07:26.878Z,8.50
2023-03-28T01:09:53.864Z,7.77
2023-03-28T01:12:21.392Z,8.30
2023-03-28T01:14:48.835Z,8.87
2023-03-28T01:17:16.275Z,9.13
2023-03-28T01:19:50.669Z,8.70
2023-03-28T01:22:32.846Z,8.27
2023-03-28T01:24:59.652Z,7.47
2023-03-28T01:27:37.733Z,7.83
2023-03-28T01:30:07.950Z,6.87
2023-03-28T01:33:13.745Z,8.17
2023-03-28T01:35:40.665Z,8.00
2023-03-28T01:38:27.860Z,8.10
2023-03-28T01:41:06.130Z,8.13
2023-03-28T01:43:40.839Z,8.17
2023-03-28T01:46:07.711Z,7.43
2023-03-28T01:48:38.940Z,7.50
2023-03-28T01:51:17.122Z,6.70
2023-03-28T01:53:46.596Z,7.57
2023-03-28T01:56:23.329Z,6.97
2023-03-28T01:58:51.619Z,6.60
2023-03-28T02:01:31.368Z,5.93
2023-03-28T02:04:01.470Z,6.37
2023-03-28T02:06:50.141Z,6.47
2023-03-28T02:09:24.724Z,7.20
2023-03-28T02:12:17.307Z,6.93
2023-03-28T02:15:04.406Z,6.67
2023-03-28T02:17:53.760Z,5.43
2023-03-28T02:20:50.962Z,4.77
2023-03-28T02:23:39.281Z,5.20
2023-03-28T02:26:33.733Z,5.23
2023-03-28T02:29:17.130Z,4.43
2023-03-28T02:32:10.197Z,4.33
2023-03-28T02:34:37.180Z,4.77
2023-03-28T02:37:12.459Z,4.33
2023-03-28T02:39:48.503Z,4.60
2023-03-28T02:42:34.035Z,4.27
2023-03-28T02:45:01.792Z,4.70
2023-03-28T02:47:36.674Z,4.40
2023-03-28T02:50:22.529Z,4.80
2023-03-28T02:52:56.142Z,4.80
2023-03-28T02:55:32.181Z,3.80
2023-03-28T02:58:15.364Z,4.23
2023-03-28T03:00:43.038Z,4.50
2023-03-28T03:03:10.767Z,4.20
2023-03-28T03:05:37.909Z,4.77
2023-03-28T03:08:04.834Z,4.73
2023-03-28T03:10:34.943Z,4.90
2023-03-28T03:13:02.086Z,5.07
2023-03-28T03:15:32.019Z,5.27
2023-03-28T03:18:04.608Z,4.50
2023-03-28T03:20:33.777Z,4.63
2023-03-28T03:23:02.427Z,5.03
2023-03-28T03:25:32.085Z,4.53
2023-03-28T03:28:08.271Z,4.23
2023-03-28T03:30:35.131Z,4.07
2023-03-28T03:33:28.447Z,5.23
2023-03-28T03:36:01.277Z,4.83
2023-03-28T03:38:28.581Z,4.90
2023-03-28T03:40:55.444Z,6.50
2023-03-28T03:43:23.304Z,4.23
2023-03-28T03:45:50.149Z,4.53
2023-03-28T03:48:17.107Z,4.30
2023-03-28T03:50:44.137Z,5.60
2023-03-28T03:53:15.707Z,5.67
2023-03-28T03:55:54.543Z,5.00
2023-03-28T03:58:21.479Z,5.20
2023-03-28T04:00:49.961Z,4.30
2023-03-28T04:03:34.145Z,5.70
2023-03-28T04:06:02.264Z,5.20
2023-03-28T04:08:29.417Z,6.07
2023-03-28T04:10:56.662Z,5.53
2023-03-28T04:13:23.632Z,4.80
2023-03-28T04:15:56.388Z,5.73
2023-03-28T04:18:30.027Z,5.27
2023-03-28T04:20:59.098Z,5.10
2023-03-28T04:23:44.373Z,6.03
2023-03-28T04:26:38.209Z,6.10
2023-03-28T04:29:07.493Z,6.87
2023-03-28T04:31:39.972Z,5.57
2023-03-28T04:34:30.439Z,5.60
2023-03-28T04:37:09.382Z,5.97
2023-03-28T04:39:49.829Z,6.07
2023-03-28T04:42:31.742Z,5.43
2023-03-28T04:45:09.298Z,4.83
2023-03-28T04:47:40.304Z,5.40
2023-03-28T04:50:14.206Z,6.70
2023-03-28T04:52:41.227Z,6.87
2023-03-28T04:55:08.193Z,5.63
2023-03-28T04:57:37.262Z,5.20
2023-03-28T05:00:10.121Z,5.70
2023-03-28T05:03:20.749Z,7.57
2023-03-28T05:05:58.403Z,7.07
2023-03-28T05:08:28.305Z,5.17
2023-03-28T05:10:56.094Z,6.10
2023-03-28T05:13:23.723Z,6.03
2023-03-28T05:16:01.951Z,5.63
2023-03-28T05:18:47.595Z,8.07
2023-03-28T05:21:17.103Z,6.73
2023-03-28T05:23:44.026Z,5.17
2023-03-28T05:26:21.807Z,5.37
2023-03-28T05:28:48.706Z,4.67
2023-03-28T05:31:17.427Z,6.07
2023-03-28T05:33:49.462Z,6.13
2023-03-28T05:36:26.743Z,4.90
2023-03-28T05:38:53.586Z,4.63
2023-03-28T05:41:21.154Z,4.50
2023-03-28T05:43:48.056Z,4.50
2023-03-28T05:46:26.053Z,2.90
2023-03-28T05:48:54.069Z,2.80
2023-03-28T05:51:21.636Z,2.70
2023-03-28T05:53:48.799Z,2.73
2023-03-28T05:56:15.579Z,3.20
2023-03-28T05:58:42.518Z,2.67
2023-03-28T06:01:10.262Z,3.60
2023-03-28T06:03:40.290Z,3.23
2023-03-28T06:06:08.401Z,2.83
2023-03-28T06:08:36.496Z,2.50
2023-03-28T06:11:03.933Z,2.47
2023-03-28T06:14:06.028Z,2.03
2023-03-28T06:16:32.988Z,2.10
2023-03-28T06:19:14.261Z,1.90
2023-03-28T06:21:48.628Z,2.30
2023-03-28T06:24:15.608Z,2.70
2023-03-28T06:26:42.831Z,3.30
2023-03-28T06:29:14.262Z,2.53
2023-03-28T06:31:42.647Z,2.97
2023-03-28T06:34:09.481Z,2.20
2023-03-28T06:36:46.447Z,1.57
2023-03-28T06:39:13.821Z,1.93
2023-03-28T06:41:40.964Z,2.07
2023-03-28T06:44:07.905Z,2.10
2023-03-28T06:46:53.182Z,1.70
2023-03-28T06:49:20.630Z,1.90
2023-03-28T06:52:19.786Z,1.70
2023-03-28T06:54:48.548Z,1.93
2023-03-28T06:57:16.668Z,2.00
2023-03-28T06:59:44.430Z,1.73
2023-03-28T07:02:17.812Z,1.40
2023-03-28T07:04:45.306Z,1.53
2023-03-28T07:07:12.688Z,1.47
2023-03-28T07:09:39.608Z,1.73
2023-03-28T07:12:10.602Z,1.53
2023-03-28T07:14:37.467Z,2.67
2023-03-28T07:17:04.281Z,2.40
2023-03-28T07:19:32.481Z,2.40
2023-03-28T07:21:59.390Z,1.77
2023-03-28T07:24:26.474Z,2.30
2023-03-28T07:27:14.885Z,1.70
2023-03-28T07:29:44.895Z,1.60
2023-03-28T07:32:11.933Z,1.50
2023-03-28T07:34:38.769Z,1.80
2023-03-28T07:37:08.505Z,1.90
2023-03-28T07:39:49.305Z,2.40
2023-03-28T07:42:20.706Z,2.30
2023-03-28T07:44:47.626Z,2.30
2023-03-28T07:47:16.847Z,2.23
2023-03-28T07:49:44.986Z,3.33
2023-03-28T07:52:13.548Z,5.33
2023-03-28T07:54:40.996Z,13.80
2023-03-28T07:57:08.095Z,2.30
2023-03-28T08:00:01.061Z,6.10
2023-03-28T08:02:29.406Z,9.77
2023-03-28T08:04:56.398Z,4.37
2023-03-28T08:07:25.855Z,3.37
2023-03-28T08:09:54.817Z,9.97
2023-03-28T08:12:29.703Z,8.70
2023-03-28T08:14:56.802Z,8.03
2023-03-28T08:17:24.143Z,12.83
2023-03-28T08:19:52.871Z,4.23
2023-03-28T08:22:38.363Z,5.63
2023-03-28T08:25:31.103Z,4.90
2023-03-28T08:27:58.654Z,3.23
2023-03-28T08:30:25.473Z,3.40
2023-03-28T08:32:58.010Z,4.33
2023-03-28T08:35:25.134Z,6.47
2023-03-28T08:37:56.054Z,6.83
2023-03-28T08:40:25.116Z,12.60
2023-03-28T08:42:55.044Z,10.50
2023-03-28T08:45:22.005Z,5.30
2023-03-28T08:48:04.425Z,11.07
2023-03-28T08:50:34.725Z,3.90
2023-03-28T08:53:02.578Z,3.70
2023-03-28T08:55:35.549Z,4.47
2023-03-28T08:58:03.524Z,3.20
2023-03-28T09:00:34.547Z,3.30
2023-03-28T09:03:01.565Z,4.20
2023-03-28T09:05:47.393Z,3.03
2023-03-28T09:08:20.639Z,2.20
2023-03-28T09:11:03.510Z,2.30
2023-03-28T09:13:43.532Z,2.33
2023-03-28T09:16:15.351Z,2.27
2023-03-28T09:18:57.680Z,2.70
2023-03-28T09:21:25.564Z,3.33
2023-03-28T09:24:13.213Z,6.00
2023-03-28T09:27:06.953Z,4.30
2023-03-28T09:29:38.920Z,1.97
2023-03-28T09:32:12.797Z,2.30
2023-03-28T09:34:49.141Z,1.90
2023-03-28T09:37:37.452Z,2.70
2023-03-28T09:40:21.012Z,2.47
2023-03-28T09:43:06.557Z,2.40
2023-03-28T09:45:49.107Z,2.30
2023-03-28T09:48:45.178Z,2.80
2023-03-28T09:51:16.996Z,2.30
2023-03-28T09:53:45.515Z,4.50
2023-03-28T09:56:30.210Z,4.37
2023-03-28T09:59:11.301Z,2.20
2023-03-28T10:01:46.157Z,2.57
2023-03-28T10:04:33.569Z,3.17
2023-03-28T10:07:31.250Z,2.73
2023-03-28T10:10:18.801Z,1.80
2023-03-28T10:12:49.165Z,2.47
2023-03-28T10:15:38.875Z,2.40
2023-03-28T10:18:18.869Z,2.60
2023-03-28T10:20:51.645Z,2.87
2023-03-28T10:23:21.734Z,2.33
2023-03-28T10:25:53.060Z,3.10
2023-03-28T10:28:38.449Z,2.83
2023-03-28T10:31:05.769Z,1.93
2023-03-28T10:33:43.514Z,2.20
2023-03-28T10:36:33.153Z,2.87
2023-03-28T10:39:20.249Z,1.90
2023-03-28T10:42:22.795Z,2.30
2023-03-28T10:45:20.253Z,2.80
2023-03-28T10:47:49.808Z,2.40
2023-03-28T10:50:22.697Z,2.40
2023-03-28T10:52:52.702Z,3.00
2023-03-28T10:55:28.881Z,2.00
2023-03-28T10:58:14.443Z,3.00
2023-03-28T11:00:58.859Z,3.73
2023-03-28T11:03:41.164Z,5.40
2023-03-28T11:06:11.224Z,1.70
2023-03-28T11:08:55.829Z,1.47
2023-03-28T11:11:36.782Z,1.90
2023-03-28T11:14:23.197Z,1.73
2023-03-28T11:16:56.366Z,1.97
2023-03-28T11:20:01.228Z,3.03
2023-03-28T11:22:41.370Z,2.53
2023-03-28T11:25:21.825Z,3.13
2023-03-28T11:28:24.096Z,3.50
2023-03-28T11:30:56.873Z,3.67
2023-03-28T11:33:39.066Z,2.50
2023-03-28T11:36:20.065Z,2.10
2023-03-28T11:38:52.372Z,3.63
2023-03-28T11:41:21.276Z,3.90
2023-03-28T11:44:39.331Z,2.37
2023-03-28T11:47:08.806Z,1.80
2023-03-28T11:49:41.186Z,5.20
2023-03-28T11:52:35.623Z,2.30
2023-03-28T11:55:25.238Z,2.30
2023-03-28T11:58:11.360Z,7.30
2023-03-28T12:00:42.386Z,3.47
2023-03-28T12:03:30.669Z,9.03
2023-03-28T12:06:02.762Z,6.07
2023-03-28T12:08:34.989Z,9.13
2023-03-28T12:11:07.869Z,8.37
2023-03-28T12:14:01.304Z,3.30
2023-03-28T12:16:44.505Z,3.30
2023-03-28T12:19:15.948Z,2.30
2023-03-28T12:21:52.769Z,2.07
2023-03-28T12:24:25.433Z,2.10
2023-03-28T12:27:17.680Z,2.40
2023-03-28T12:30:00.424Z,2.13
2023-03-28T12:32:38.606Z,2.80
2023-03-28T12:35:14.943Z,2.67
2023-03-28T12:37:59.596Z,2.27
2023-03-28T12:40:45.940Z,3.57
2023-03-28T12:43:14.750Z,2.83
2023-03-28T12:45:44.496Z,2.60
2023-03-28T12:48:30.636Z,2.93
2023-03-28T12:51:17.707Z,2.20
2023-03-28T12:54:00.136Z,4.40
2023-03-28T12:56:27.517Z,2.60
2023-03-28T12:58:54.323Z,2.80
2023-03-28T13:01:36.420Z,2.70
2023-03-28T13:04:36.143Z,2.57
2023-03-28T13:07:18.512Z,2.33
2023-03-28T13:09:56.189Z,3.27
2023-03-28T13:12:35.325Z,2.20
2023-03-28T13:15:03.959Z,2.10
2023-03-28T13:17:32.629Z,4.93
2023-03-28T13:20:11.602Z,4.00
2023-03-28T13:22:42.323Z,3.17
2023-03-28T13:25:28.521Z,4.80
2023-03-28T13:28:15.696Z,1.90
2023-03-28T13:30:43.645Z,2.27
2023-03-28T13:33:30.066Z,4.87
2023-03-28T13:36:00.429Z,10.50
2023-03-28T13:38:27.542Z,2.80
2023-03-28T13:40:57.279Z,1.60
2023-03-28T13:43:25.985Z,2.70
2023-03-28T13:45:57.847Z,2.73
2023-03-28T13:48:26.810Z,2.50
2023-03-28T13:50:53.785Z,3.70
2023-03-28T13:53:20.690Z,4.23
2023-03-28T13:55:47.891Z,2.47
2023-03-28T13:58:16.142Z,1.80
2023-03-28T14:00:44.161Z,1.70
2023-03-28T14:03:15.159Z,4.10
2023-03-28T14:05:43.628Z,5.00
2023-03-28T14:08:13.229Z,5.13
2023-03-28T14:10:42.309Z,1.90
2023-03-28T14:13:14.620Z,5.57
2023-03-28T14:15:43.735Z,4.30
2023-03-28T14:18:27.714Z,5.10
2023-03-28T14:20:55.993Z,3.73
2023-03-28T14:23:28.230Z,2.20
2023-03-28T14:25:55.582Z,2.00
2023-03-28T14:28:27.839Z,5.20
2023-03-28T14:30:54.911Z,2.20
2023-03-28T14:33:22.185Z,2.57
2023-03-28T14:35:57.519Z,3.23
2023-03-28T14:38:28.837Z,4.53
2023-03-28T14:41:04.477Z,3.67
2023-03-28T14:43:31.944Z,3.43
2023-03-28T14:46:03.094Z,2.57
2023-03-28T14:48:30.323Z,3.20
2023-03-28T14:50:59.317Z,3.40
2023-03-28T14:53:27.414Z,2.97
2023-03-28T14:55:55.294Z,5.00
2023-03-28T14:58:22.937Z,3.70
2023-03-28T15:00:58.945Z,3.10
2023-03-28T15:03:31.695Z,4.10
2023-03-28T15:05:59.595Z,3.90
2023-03-28T15:08:34.441Z,3.33
2023-03-28T15:11:06.140Z,3.13
2023-03-28T15:13:40.556Z,4.00
2023-03-28T15:16:08.656Z,3.20
2023-03-28T15:18:47.271Z,3.70
2023-03-28T15:21:15.755Z,4.87
2023-03-28T15:23:57.886Z,5.07
2023-03-28T15:26:28.080Z,3.53
2023-03-28T15:28:56.389Z,3.57
2023-03-28T15:31:24.116Z,4.03
2023-03-28T15:33:52.020Z,2.57
2023-03-28T15:36:20.403Z,4.23
2023-03-28T15:38:49.634Z,4.37
2023-03-28T15:41:22.937Z,4.57
2023-03-28T15:43:49.827Z,3.77
2023-03-28T15:46:16.704Z,3.50
2023-03-28T15:48:43.780Z,4.37
2023-03-28T15:51:15.637Z,3.00
2023-03-28T15:53:43.190Z,3.63
2023-03-28T15:56:26.484Z,3.70
2023-03-28T15:58:54.621Z,3.20
2023-03-28T16:01:23.035Z,2.77
2023-03-28T16:03:50.829Z,3.50
2023-03-28T16:06:31.596Z,3.70
2023-03-28T16:09:12.146Z,3.17
2023-03-28T16:11:39.064Z,3.03
2023-03-28T16:14:24.867Z,2.73
2023-03-28T16:16:55.253Z,3.57
2023-03-28T16:19:34.379Z,3.13
2023-03-28T16:22:02.203Z,4.70
2023-03-28T16:24:28.986Z,3.67
2023-03-28T16:26:56.369Z,4.33
2023-03-28T16:29:24.064Z,3.83
2023-03-28T16:31:51.424Z,4.57
2023-03-28T16:34:18.357Z,3.50
2023-03-28T16:36:45.848Z,4.27
2023-03-28T16:39:12.629Z,3.70
2023-03-28T16:41:39.700Z,3.60
2023-03-28T16:44:06.683Z,3.47
2023-03-28T16:46:33.874Z,3.37
2023-03-28T16:49:00.686Z,3.03
2023-03-28T16:51:27.584Z,2.53
2023-03-28T16:53:54.574Z,12.20
2023-03-28T16:56:23.963Z,5.60
2023-03-28T16:59:08.120Z,10.30
2023-03-28T17:01:35.100Z,7.07
2023-03-28T17:04:02.134Z,10.83
2023-03-28T17:06:29.817Z,2.70
2023-03-28T17:08:57.018Z,5.97
2023-03-28T17:11:24.417Z,2.53
2023-03-28T17:13:52.188Z,2.50
2023-03-28T17:16:19.383Z,2.60
2023-03-28T17:18:46.294Z,7.67
2023-03-28T17:21:13.950Z,2.30
2023-03-28T17:23:41.569Z,2.43
2023-03-28T17:26:09.150Z,3.73
2023-03-28T17:28:42.199Z,2.60
2023-03-28T17:31:10.774Z,3.20
2023-03-28T17:33:38.294Z,2.23
2023-03-28T17:36:18.296Z,2.43
2023-03-28T17:38:48.292Z,2.20
2023-03-28T17:41:59.503Z,6.80
2023-03-28T17:44:32.603Z,19.07
2023-03-28T17:47:03.008Z,18.50
2023-03-28T17:49:30.122Z,8.23
2023-03-28T17:51:57.419Z,11.27
2023-03-28T17:54:25.468Z,9.60
2023-03-28T17:56:53.251Z,12.63
2023-03-28T17:59:20.076Z,9.87
2023-03-28T18:01:47.132Z,7.60
2023-03-28T18:04:14.260Z,7.27
2023-03-28T18:06:59.621Z,13.23
2023-03-28T18:09:27.721Z,15.50
2023-03-28T18:11:54.615Z,16.17
2023-03-28T18:14:21.480Z,8.73
2023-03-28T18:16:49.000Z,8.27
2023-03-28T18:19:18.700Z,6.70
2023-03-28T18:21:46.034Z,5.83
2023-03-28T18:24:13.181Z,3.17
2023-03-28T18:26:40.080Z,4.53
2023-03-28T18:29:07.146Z,3.13
2023-03-28T18:31:34.158Z,2.43
2023-03-28T18:34:03.808Z,2.80
2023-03-28T18:36:31.169Z,4.60
2023-03-28T18:38:58.120Z,7.43
2023-03-28T18:41:25.472Z,11.17
2023-03-28T18:43:52.452Z,5.47
2023-03-28T18:46:19.385Z,6.63
2023-03-28T18:48:46.755Z,5.57
2023-03-28T18:51:14.060Z,7.70
2023-03-28T18:53:42.238Z,6.07
2023-03-28T18:56:10.162Z,8.10
2023-03-28T18:58:37.509Z,5.23
2023-03-28T19:01:04.935Z,6.67
2023-03-28T19:03:33.180Z,6.13
2023-03-28T19:06:01.359Z,7.43
2023-03-28T19:08:29.216Z,7.07
2023-03-28T19:10:57.275Z,6.33
2023-03-28T19:13:24.628Z,5.80
2023-03-28T19:16:02.828Z,5.53
2023-03-28T19:18:29.965Z,6.30
2023-03-28T19:20:58.374Z,7.30
2023-03-28T19:23:30.454Z,7.07
2023-03-28T19:25:57.475Z,7.97
2023-03-28T19:28:25.132Z,8.53
2023-03-28T19:31:05.329Z,16.30
2023-03-28T19:33:32.719Z,26.87
2023-03-28T19:35:59.873Z,27.57
2023-03-28T19:38:27.602Z,22.13
2023-03-28T19:40:58.311Z,16.10
2023-03-28T19:43:25.698Z,18.07
2023-03-28T19:45:52.643Z,12.23
2023-03-28T19:48:19.702Z,9.77
2023-03-28T19:50:48.760Z,12.00
2023-03-28T19:53:15.878Z,16.73
2023-03-28T19:55:42.721Z,14.20
2023-03-28T19:58:10.443Z,15.97
2023-03-28T20:00:37.305Z,11.43
2023-03-28T20:03:04.355Z,12.30
2023-03-28T20:05:31.585Z,13.20
2023-03-28T20:07:58.497Z,15.63
2023-03-28T20:10:25.794Z,12.87
2023-03-28T20:12:52.589Z,13.20
2023-03-28T20:15:19.561Z,13.33
2023-03-28T20:17:46.742Z,15.70
2023-03-28T20:20:13.690Z,9.83
2023-03-28T20:22:40.672Z,9.23
2023-03-28T20:25:07.888Z,6.07
2023-03-28T20:27:35.890Z,13.67
2023-03-28T20:30:03.615Z,20.53
2023-03-28T20:32:30.943Z,27.10
2023-03-28T20:34:57.810Z,15.37
2023-03-28T20:37:24.736Z,12.40
2023-03-28T20:39:52.211Z,13.03
2023-03-28T20:42:19.731Z,14.80
2023-03-28T20:44:46.648Z,17.40
2023-03-28T20:47:18.934Z,23.97
2023-03-28T20:49:46.540Z,26.50
2023-03-28T20:52:13.484Z,18.23
2023-03-28T20:54:40.468Z,10.77
2023-03-28T20:57:07.375Z,11.37
2023-03-28T20:59:34.858Z,11.03
2023-03-28T21:02:02.301Z,9.10
2023-03-28T21:04:30.509Z,10.27
2023-03-28T21:06:58.251Z,9.97
2023-03-28T21:09:25.988Z,11.27
2023-03-28T21:11:53.249Z,10.37
2023-03-28T21:14:20.096Z,10.53
2023-03-28T21:16:47.702Z,10.50
2023-03-28T21:19:14.706Z,9.43
2023-03-28T21:21:41.813Z,11.53
2023-03-28T21:24:08.857Z,11.90
2023-03-28T21:26:36.134Z,11.30
2023-03-28T21:29:03.405Z,10.90
2023-03-28T21:31:30.375Z,11.03
2023-03-28T21:33:58.091Z,11.77
2023-03-28T21:36:25.964Z,11.50
2023-03-28T21:38:53.630Z,12.53
2023-03-28T21:41:20.984Z,11.70
2023-03-28T21:43:48.444Z,11.40
2023-03-28T21:46:18.856Z,11.73
2023-03-28T21:48:48.542Z,11.33
2023-03-28T21:51:16.403Z,10.87
2023-03-28T21:53:43.327Z,10.70
2023-03-28T21:56:11.854Z,11.17
2023-03-28T21:58:39.247Z,11.23
2023-03-28T22:01:06.476Z,11.03
2023-03-28T22:03:36.289Z,11.43
2023-03-28T22:06:03.568Z,11.13
2023-03-28T22:08:30.833Z,11.40
2023-03-28T22:10:58.828Z,11.03
2023-03-28T22:13:26.004Z,11.17
2023-03-28T22:15:53.260Z,10.37
2023-03-28T22:18:20.754Z,10.07
2023-03-28T22:20:53.584Z,9.27
2023-03-28T22:23:22.244Z,7.77
2023-03-28T22:25:49.898Z,7.50
2023-03-28T22:28:17.092Z,8.30
2023-03-28T22:30:44.480Z,6.93
2023-03-28T22:33:13.554Z,7.90
2023-03-28T22:35:40.693Z,7.00
2023-03-28T22:38:08.010Z,7.60
2023-03-28T22:40:35.268Z,9.63
2023-03-28T22:43:03.277Z,9.70
2023-03-28T22:45:30.627Z,9.27
2023-03-28T22:48:03.903Z,8.60
2023-03-28T22:50:33.926Z,10.17
2023-03-28T22:53:02.710Z,10.40
2023-03-28T22:55:30.296Z,11.07
2023-03-28T22:57:57.398Z,10.40
2023-03-28T23:00:24.376Z,10.53
2023-03-28T23:02:52.231Z,11.40
2023-03-28T23:05:19.598Z,10.73
2023-03-28T23:07:46.704Z,11.60
2023-03-28T23:10:15.388Z,9.87
2023-03-28T23:12:42.850Z,9.57
2023-03-28T23:15:10.624Z,9.27
2023-03-28T23:17:38.268Z,8.63
2023-03-28T23:20:25.921Z,9.50
2023-03-28T23:22:53.898Z,9.13
2023-03-28T23:25:22.378Z,10.13
2023-03-28T23:27:49.357Z,8.87
2023-03-28T23:30:16.586Z,9.17
2023-03-28T23:32:43.691Z,10.13
2023-03-28T23:35:10.919Z,10.03
2023-03-28T23:37:38.619Z,9.60
2023-03-28T23:40:06.503Z,10.90
2023-03-28T23:42:33.338Z,11.53
2023-03-28T23:45:00.289Z,9.43
2023-03-28T23:47:27.232Z,10.83
2023-03-28T23:49:54.209Z,16.40
2023-03-28T23:52:20.978Z,11.87
2023-03-28T23:54:47.977Z,12.07
2023-03-28T23:57:14.882Z,10.37
2023-03-28T23:59:41.817Z,9.27
